sensor_id;sensor_type;location;lat;lon;timestamp;temperature;humidity
67093;SHT31;54011;50.772;7.730;2023-10-13T00:01:59;22.13;72.83
67093;SHT31;54011;50.772;7.730;2023-10-13T00:04:29;22.17;72.82
67093;SHT31;54011;50.772;7.730;2023-10-13T00:06:56;22.04;73.35
67093;SHT31;54011;50.772;7.730;2023-10-13T00:09:26;22.10;73.07
67093;SHT31;54011;50.772;7.730;2023-10-13T00:11:58;21.72;73.98
67093;SHT31;54011;50.772;7.730;2023-10-13T00:14:24;21.49;74.71
67093;SHT31;54011;50.772;7.730;2023-10-13T00:17:01;21.76;73.88
67093;SHT31;54011;50.772;7.730;2023-10-13T00:19:29;21.77;74.15
67093;SHT31;54011;50.772;7.730;2023-10-13T00:22:03;21.94;73.59
67093;SHT31;54011;50.772;7.730;2023-10-13T00:24:35;22.03;72.97
67093;SHT31;54011;50.772;7.730;2023-10-13T00:27:08;21.86;73.43
67093;SHT31;54011;50.772;7.730;2023-10-13T00:29:39;21.80;73.64
67093;SHT31;54011;50.772;7.730;2023-10-13T00:32:04;22.17;72.91
67093;SHT31;54011;50.772;7.730;2023-10-13T00:34:30;21.66;73.77
67093;SHT31;54011;50.772;7.730;2023-10-13T00:36:58;21.42;74.76
67093;SHT31;54011;50.772;7.730;2023-10-13T00:39:37;21.91;73.53
67093;SHT31;54011;50.772;7.730;2023-10-13T00:42:05;21.82;73.67
67093;SHT31;54011;50.772;7.730;2023-10-13T00:44:43;21.82;73.98
67093;SHT31;54011;50.772;7.730;2023-10-13T00:47:13;22.18;72.83
67093;SHT31;54011;50.772;7.730;2023-10-13T00:49:42;22.05;73.32
67093;SHT31;54011;50.772;7.730;2023-10-13T00:52:12;21.74;73.83
67093;SHT31;54011;50.772;7.730;2023-10-13T00:54:38;21.83;73.91
67093;SHT31;54011;50.772;7.730;2023-10-13T00:57:05;21.59;74.44
67093;SHT31;54011;50.772;7.730;2023-10-13T00:59:37;21.62;74.23
67093;SHT31;54011;50.772;7.730;2023-10-13T01:02:03;21.69;74.49
67093;SHT31;54011;50.772;7.730;2023-10-13T01:04:55;21.76;74.02
67093;SHT31;54011;50.772;7.730;2023-10-13T01:07:20;22.05;73.18
67093;SHT31;54011;50.772;7.730;2023-10-13T01:09:47;22.08;73.17
67093;SHT31;54011;50.772;7.730;2023-10-13T01:12:13;21.79;73.99
67093;SHT31;54011;50.772;7.730;2023-10-13T01:14:40;21.74;74.14
67093;SHT31;54011;50.772;7.730;2023-10-13T01:17:05;21.97;73.88
67093;SHT31;54011;50.772;7.730;2023-10-13T01:19:36;21.97;73.90
67093;SHT31;54011;50.772;7.730;2023-10-13T01:22:04;21.86;73.84
67093;SHT31;54011;50.772;7.730;2023-10-13T01:24:32;21.90;73.88
67093;SHT31;54011;50.772;7.730;2023-10-13T01:27:01;21.79;74.19
67093;SHT31;54011;50.772;7.730;2023-10-13T01:29:48;21.76;74.24
67093;SHT31;54011;50.772;7.730;2023-10-13T01:32:20;22.03;73.53
67093;SHT31;54011;50.772;7.730;2023-10-13T01:34:46;21.74;74.51
67093;SHT31;54011;50.772;7.730;2023-10-13T01:37:13;21.54;74.46
67093;SHT31;54011;50.772;7.730;2023-10-13T01:39:41;21.84;74.20
67093;SHT31;54011;50.772;7.730;2023-10-13T01:42:07;21.91;73.86
67093;SHT31;54011;50.772;7.730;2023-10-13T01:44:32;21.94;73.81
67093;SHT31;54011;50.772;7.730;2023-10-13T01:46:58;21.94;74.01
67093;SHT31;54011;50.772;7.730;2023-10-13T01:49:34;21.80;74.19
67093;SHT31;54011;50.772;7.730;2023-10-13T01:52:07;21.82;74.15
67093;SHT31;54011;50.772;7.730;2023-10-13T01:54:36;21.83;74.15
67093;SHT31;54011;50.772;7.730;2023-10-13T01:57:07;21.87;74.00
67093;SHT31;54011;50.772;7.730;2023-10-13T01:59:32;22.42;72.81
67093;SHT31;54011;50.772;7.730;2023-10-13T02:01:58;21.82;74.51
67093;SHT31;54011;50.772;7.730;2023-10-13T02:04:27;21.84;74.34
67093;SHT31;54011;50.772;7.730;2023-10-13T02:06:53;22.00;74.13
67093;SHT31;54011;50.772;7.730;2023-10-13T02:09:21;21.87;74.21
67093;SHT31;54011;50.772;7.730;2023-10-13T02:11:53;22.27;73.42
67093;SHT31;54011;50.772;7.730;2023-10-13T02:14:20;22.13;73.59
67093;SHT31;54011;50.772;7.730;2023-10-13T02:16:50;22.04;73.94
67093;SHT31;54011;50.772;7.730;2023-10-13T02:19:16;21.87;74.27
67093;SHT31;54011;50.772;7.730;2023-10-13T02:21:45;21.69;74.54
67093;SHT31;54011;50.772;7.730;2023-10-13T02:24:11;22.10;73.93
67093;SHT31;54011;50.772;7.730;2023-10-13T02:26:46;21.90;74.10
67093;SHT31;54011;50.772;7.730;2023-10-13T02:29:11;21.97;74.10
67093;SHT31;54011;50.772;7.730;2023-10-13T02:31:43;22.24;73.79
67093;SHT31;54011;50.772;7.730;2023-10-13T02:34:19;21.76;74.63
67093;SHT31;54011;50.772;7.730;2023-10-13T02:36:45;21.86;74.52
67093;SHT31;54011;50.772;7.730;2023-10-13T02:39:14;22.15;74.20
67093;SHT31;54011;50.772;7.730;2023-10-13T02:41:41;22.03;74.20
67093;SHT31;54011;50.772;7.730;2023-10-13T02:44:13;21.97;74.74
67093;SHT31;54011;50.772;7.730;2023-10-13T02:46:45;21.89;74.70
67093;SHT31;54011;50.772;7.730;2023-10-13T02:49:16;22.01;74.40
67093;SHT31;54011;50.772;7.730;2023-10-13T02:51:47;22.31;73.45
67093;SHT31;54011;50.772;7.730;2023-10-13T02:54:12;22.47;72.83
67093;SHT31;54011;50.772;7.730;2023-10-13T02:56:43;22.38;73.20
67093;SHT31;54011;50.772;7.730;2023-10-13T02:59:25;22.04;74.28
67093;SHT31;54011;50.772;7.730;2023-10-13T03:02:06;22.32;73.34
67093;SHT31;54011;50.772;7.730;2023-10-13T03:04:50;22.47;73.06
67093;SHT31;54011;50.772;7.730;2023-10-13T03:07:16;22.44;72.98
67093;SHT31;54011;50.772;7.730;2023-10-13T03:09:48;22.51;73.04
67093;SHT31;54011;50.772;7.730;2023-10-13T03:12:20;22.56;73.27
67093;SHT31;54011;50.772;7.730;2023-10-13T03:14:47;22.69;73.00
67093;SHT31;54011;50.772;7.730;2023-10-13T03:17:13;22.71;72.91
67093;SHT31;54011;50.772;7.730;2023-10-13T03:19:46;22.40;73.75
67093;SHT31;54011;50.772;7.730;2023-10-13T03:22:16;22.25;73.90
67093;SHT31;54011;50.772;7.730;2023-10-13T03:24:44;22.00;74.64
67093;SHT31;54011;50.772;7.730;2023-10-13T03:27:13;22.69;73.11
67093;SHT31;54011;50.772;7.730;2023-10-13T03:29:43;22.61;73.21
67093;SHT31;54011;50.772;7.730;2023-10-13T03:32:18;22.63;73.49
67093;SHT31;54011;50.772;7.730;2023-10-13T03:34:46;22.73;72.95
67093;SHT31;54011;50.772;7.730;2023-10-13T03:37:19;22.89;72.84
67093;SHT31;54011;50.772;7.730;2023-10-13T03:40:13;22.58;73.51
67093;SHT31;54011;50.772;7.730;2023-10-13T03:42:59;22.90;72.80
67093;SHT31;54011;50.772;7.730;2023-10-13T03:45:26;22.44;73.77
67093;SHT31;54011;50.772;7.730;2023-10-13T03:47:53;22.53;73.80
67093;SHT31;54011;50.772;7.730;2023-10-13T03:50:19;22.04;75.43
67093;SHT31;54011;50.772;7.730;2023-10-13T03:52:56;22.45;74.24
67093;SHT31;54011;50.772;7.730;2023-10-13T03:55:26;22.40;74.72
67093;SHT31;54011;50.772;7.730;2023-10-13T03:57:56;22.53;74.44
67093;SHT31;54011;50.772;7.730;2023-10-13T04:00:25;22.69;73.70
67093;SHT31;54011;50.772;7.730;2023-10-13T04:02:52;22.63;73.97
67093;SHT31;54011;50.772;7.730;2023-10-13T04:05:38;22.95;73.25
67093;SHT31;54011;50.772;7.730;2023-10-13T04:08:07;22.98;72.99
67093;SHT31;54011;50.772;7.730;2023-10-13T04:10:56;22.88;73.37
67093;SHT31;54011;50.772;7.730;2023-10-13T04:13:22;23.26;72.49
67093;SHT31;54011;50.772;7.730;2023-10-13T04:16:07;22.89;73.06
67093;SHT31;54011;50.772;7.730;2023-10-13T04:19:01;22.89;73.28
67093;SHT31;54011;50.772;7.730;2023-10-13T04:21:26;22.75;74.15
67093;SHT31;54011;50.772;7.730;2023-10-13T04:24:14;22.42;75.08
67093;SHT31;54011;50.772;7.730;2023-10-13T04:26:51;22.37;74.74
67093;SHT31;54011;50.772;7.730;2023-10-13T04:29:35;22.25;75.22
67093;SHT31;54011;50.772;7.730;2023-10-13T04:32:20;22.34;75.32
67093;SHT31;54011;50.772;7.730;2023-10-13T04:34:59;22.69;74.28
67093;SHT31;54011;50.772;7.730;2023-10-13T04:37:40;22.17;75.54
67093;SHT31;54011;50.772;7.730;2023-10-13T04:40:24;22.47;75.57
67093;SHT31;54011;50.772;7.730;2023-10-13T04:42:52;22.58;74.57
67093;SHT31;54011;50.772;7.730;2023-10-13T04:45:18;22.38;75.09
67093;SHT31;54011;50.772;7.730;2023-10-13T04:47:57;22.49;75.52
67093;SHT31;54011;50.772;7.730;2023-10-13T04:50:49;22.41;75.22
67093;SHT31;54011;50.772;7.730;2023-10-13T04:53:24;22.77;73.92
67093;SHT31;54011;50.772;7.730;2023-10-13T04:56:01;22.21;75.99
67093;SHT31;54011;50.772;7.730;2023-10-13T04:58:30;22.34;75.73
67093;SHT31;54011;50.772;7.730;2023-10-13T05:01:02;22.83;73.80
67093;SHT31;54011;50.772;7.730;2023-10-13T05:03:49;23.02;73.86
67093;SHT31;54011;50.772;7.730;2023-10-13T05:06:34;22.72;74.52
67093;SHT31;54011;50.772;7.730;2023-10-13T05:09:13;22.59;74.89
67093;SHT31;54011;50.772;7.730;2023-10-13T05:11:59;22.86;73.71
67093;SHT31;54011;50.772;7.730;2023-10-13T05:14:44;23.12;73.70
67093;SHT31;54011;50.772;7.730;2023-10-13T05:17:28;23.10;73.74
67093;SHT31;54011;50.772;7.730;2023-10-13T05:20:13;23.10;73.02
67093;SHT31;54011;50.772;7.730;2023-10-13T05:22:58;23.07;73.30
67093;SHT31;54011;50.772;7.730;2023-10-13T05:25:43;23.34;72.97
67093;SHT31;54011;50.772;7.730;2023-10-13T05:28:29;23.14;73.10
67093;SHT31;54011;50.772;7.730;2023-10-13T05:31:13;23.06;73.82
67093;SHT31;54011;50.772;7.730;2023-10-13T05:34:14;22.83;74.26
67093;SHT31;54011;50.772;7.730;2023-10-13T05:36:58;23.04;73.73
67093;SHT31;54011;50.772;7.730;2023-10-13T05:39:42;23.55;72.45
67093;SHT31;54011;50.772;7.730;2023-10-13T05:42:28;23.28;73.22
67093;SHT31;54011;50.772;7.730;2023-10-13T05:45:14;23.03;73.83
67093;SHT31;54011;50.772;7.730;2023-10-13T05:47:42;22.99;74.05
67093;SHT31;54011;50.772;7.730;2023-10-13T05:50:09;23.03;74.01
67093;SHT31;54011;50.772;7.730;2023-10-13T05:52:49;23.46;72.85
67093;SHT31;54011;50.772;7.730;2023-10-13T05:55:26;23.13;73.51
67093;SHT31;54011;50.772;7.730;2023-10-13T05:58:11;23.31;73.21
67093;SHT31;54011;50.772;7.730;2023-10-13T06:00:55;23.00;74.19
67093;SHT31;54011;50.772;7.730;2023-10-13T06:03:41;23.17;73.66
67093;SHT31;54011;50.772;7.730;2023-10-13T06:06:25;23.02;73.61
67093;SHT31;54011;50.772;7.730;2023-10-13T06:09:10;23.09;73.67
67093;SHT31;54011;50.772;7.730;2023-10-13T06:11:55;23.06;73.57
67093;SHT31;54011;50.772;7.730;2023-10-13T06:14:39;23.16;73.52
67093;SHT31;54011;50.772;7.730;2023-10-13T06:17:24;23.17;73.67
67093;SHT31;54011;50.772;7.730;2023-10-13T06:20:08;22.99;73.77
67093;SHT31;54011;50.772;7.730;2023-10-13T06:22:54;23.50;72.95
67093;SHT31;54011;50.772;7.730;2023-10-13T06:25:38;23.13;73.52
67093;SHT31;54011;50.772;7.730;2023-10-13T06:28:25;23.31;73.10
67093;SHT31;54011;50.772;7.730;2023-10-13T06:31:11;22.83;74.27
67093;SHT31;54011;50.772;7.730;2023-10-13T06:33:46;23.60;72.60
67093;SHT31;54011;50.772;7.730;2023-10-13T06:36:14;23.49;72.67
67093;SHT31;54011;50.772;7.730;2023-10-13T06:38:39;23.20;73.71
67093;SHT31;54011;50.772;7.730;2023-10-13T06:41:06;22.96;74.04
67093;SHT31;54011;50.772;7.730;2023-10-13T06:46:00;23.81;72.06
67093;SHT31;54011;50.772;7.730;2023-10-13T06:48:31;23.26;73.45
67093;SHT31;54011;50.772;7.730;2023-10-13T06:51:03;23.21;73.74
67093;SHT31;54011;50.772;7.730;2023-10-13T06:53:47;23.43;73.05
67093;SHT31;54011;50.772;7.730;2023-10-13T06:56:17;23.57;72.13
67093;SHT31;54011;50.772;7.730;2023-10-13T06:58:57;23.55;72.69
67093;SHT31;54011;50.772;7.730;2023-10-13T07:01:29;23.54;72.65
67093;SHT31;54011;50.772;7.730;2023-10-13T07:03:57;23.24;73.06
67093;SHT31;54011;50.772;7.730;2023-10-13T07:06:27;23.10;74.05
67093;SHT31;54011;50.772;7.730;2023-10-13T07:08:53;23.53;72.25
67093;SHT31;54011;50.772;7.730;2023-10-13T07:11:23;23.61;72.50
67093;SHT31;54011;50.772;7.730;2023-10-13T07:14:03;23.19;73.62
67093;SHT31;54011;50.772;7.730;2023-10-13T07:17:00;23.28;73.40
67093;SHT31;54011;50.772;7.730;2023-10-13T07:19:26;23.49;72.88
67093;SHT31;54011;50.772;7.730;2023-10-13T07:21:55;23.61;72.26
67093;SHT31;54011;50.772;7.730;2023-10-13T07:24:26;23.68;72.33
67093;SHT31;54011;50.772;7.730;2023-10-13T07:26:58;23.16;73.37
67093;SHT31;54011;50.772;7.730;2023-10-13T07:29:33;23.36;72.79
67093;SHT31;54011;50.772;7.730;2023-10-13T07:32:03;23.27;73.07
67093;SHT31;54011;50.772;7.730;2023-10-13T07:34:31;23.34;72.87
67093;SHT31;54011;50.772;7.730;2023-10-13T07:37:00;23.16;73.14
67093;SHT31;54011;50.772;7.730;2023-10-13T07:39:28;23.13;72.81
67093;SHT31;54011;50.772;7.730;2023-10-13T07:41:59;23.07;72.71
67093;SHT31;54011;50.772;7.730;2023-10-13T07:44:33;23.44;72.06
67093;SHT31;54011;50.772;7.730;2023-10-13T07:46:59;23.31;71.93
67093;SHT31;54011;50.772;7.730;2023-10-13T07:49:32;23.62;71.27
67093;SHT31;54011;50.772;7.730;2023-10-13T07:52:02;23.39;72.16
67093;SHT31;54011;50.772;7.730;2023-10-13T07:55:01;23.31;71.51
67093;SHT31;54011;50.772;7.730;2023-10-13T07:57:45;23.65;71.20
67093;SHT31;54011;50.772;7.730;2023-10-13T08:00:24;24.13;69.94
67093;SHT31;54011;50.772;7.730;2023-10-13T08:03:10;24.04;69.92
67093;SHT31;54011;50.772;7.730;2023-10-13T08:05:54;24.08;70.15
67093;SHT31;54011;50.772;7.730;2023-10-13T08:08:24;24.13;69.64
67093;SHT31;54011;50.772;7.730;2023-10-13T08:11:17;23.99;69.75
67093;SHT31;54011;50.772;7.730;2023-10-13T08:13:52;24.59;68.53
67093;SHT31;54011;50.772;7.730;2023-10-13T08:16:26;24.16;69.38
67093;SHT31;54011;50.772;7.730;2023-10-13T08:18:56;24.12;69.17
67093;SHT31;54011;50.772;7.730;2023-10-13T08:21:21;23.81;69.77
67093;SHT31;54011;50.772;7.730;2023-10-13T08:23:52;23.98;69.36
67093;SHT31;54011;50.772;7.730;2023-10-13T08:26:23;24.30;68.59
67093;SHT31;54011;50.772;7.730;2023-10-13T08:28:59;24.59;68.29
67093;SHT31;54011;50.772;7.730;2023-10-13T08:31:49;24.35;68.38
67093;SHT31;54011;50.772;7.730;2023-10-13T08:34:36;24.83;67.31
67093;SHT31;54011;50.772;7.730;2023-10-13T08:37:26;24.44;67.47
67093;SHT31;54011;50.772;7.730;2023-10-13T08:39:53;24.61;67.29
67093;SHT31;54011;50.772;7.730;2023-10-13T08:42:36;24.48;67.58
67093;SHT31;54011;50.772;7.730;2023-10-13T08:45:14;24.69;67.00
67093;SHT31;54011;50.772;7.730;2023-10-13T08:47:50;24.73;66.65
67093;SHT31;54011;50.772;7.730;2023-10-13T08:50:35;24.76;66.37
67093;SHT31;54011;50.772;7.730;2023-10-13T08:53:31;25.45;64.40
67093;SHT31;54011;50.772;7.730;2023-10-13T08:56:10;24.70;66.29
67093;SHT31;54011;50.772;7.730;2023-10-13T08:58:38;24.52;65.97
67093;SHT31;54011;50.772;7.730;2023-10-13T09:01:26;24.61;65.98
67093;SHT31;54011;50.772;7.730;2023-10-13T09:04:14;25.04;65.07
67093;SHT31;54011;50.772;7.730;2023-10-13T09:09:31;24.16;67.07
67093;SHT31;54011;50.772;7.730;2023-10-13T09:12:06;24.36;66.81
67093;SHT31;54011;50.772;7.730;2023-10-13T09:14:37;24.67;65.74
67093;SHT31;54011;50.772;7.730;2023-10-13T09:17:07;24.13;66.37
67093;SHT31;54011;50.772;7.730;2023-10-13T09:19:50;24.30;66.13
67093;SHT31;54011;50.772;7.730;2023-10-13T09:22:24;24.28;65.71
67093;SHT31;54011;50.772;7.730;2023-10-13T09:24:57;24.05;65.65
67093;SHT31;54011;50.772;7.730;2023-10-13T09:27:29;24.46;65.32
67093;SHT31;54011;50.772;7.730;2023-10-13T09:29:56;24.61;65.16
67093;SHT31;54011;50.772;7.730;2023-10-13T09:32:22;24.13;66.22
67093;SHT31;54011;50.772;7.730;2023-10-13T09:34:47;24.35;65.77
67093;SHT31;54011;50.772;7.730;2023-10-13T09:37:16;24.36;64.90
67093;SHT31;54011;50.772;7.730;2023-10-13T09:39:54;24.13;65.51
67093;SHT31;54011;50.772;7.730;2023-10-13T09:42:29;24.44;65.31
67093;SHT31;54011;50.772;7.730;2023-10-13T09:44:56;24.26;65.63
67093;SHT31;54011;50.772;7.730;2023-10-13T09:47:24;24.39;65.02
67093;SHT31;54011;50.772;7.730;2023-10-13T09:49:59;24.60;64.54
67093;SHT31;54011;50.772;7.730;2023-10-13T09:52:29;25.04;64.24
67093;SHT31;54011;50.772;7.730;2023-10-13T09:55:47;25.10;63.69
67093;SHT31;54011;50.772;7.730;2023-10-13T09:57:58;25.70;62.90
67093;SHT31;54011;50.772;7.730;2023-10-13T10:00:34;25.21;63.62
67093;SHT31;54011;50.772;7.730;2023-10-13T10:03:06;25.25;63.12
67093;SHT31;54011;50.772;7.730;2023-10-13T10:06:00;25.68;62.55
67093;SHT31;54011;50.772;7.730;2023-10-13T10:08:30;25.45;62.85
67093;SHT31;54011;50.772;7.730;2023-10-13T10:14:02;25.58;62.80
67093;SHT31;54011;50.772;7.730;2023-10-13T10:19:17;25.37;63.81
67093;SHT31;54011;50.772;7.730;2023-10-13T10:21:43;25.51;63.36
67093;SHT31;54011;50.772;7.730;2023-10-13T10:24:15;25.46;62.81
67093;SHT31;54011;50.772;7.730;2023-10-13T10:26:53;25.69;62.69
67093;SHT31;54011;50.772;7.730;2023-10-13T10:29:19;26.40;61.37
67093;SHT31;54011;50.772;7.730;2023-10-13T10:31:45;26.48;61.35
67093;SHT31;54011;50.772;7.730;2023-10-13T10:34:15;26.26;61.23
67093;SHT31;54011;50.772;7.730;2023-10-13T10:36:53;26.00;61.83
67093;SHT31;54011;50.772;7.730;2023-10-13T10:39:20;25.80;62.66
67093;SHT31;54011;50.772;7.730;2023-10-13T10:42:10;26.00;61.87
67093;SHT31;54011;50.772;7.730;2023-10-13T10:44:40;26.13;61.29
67093;SHT31;54011;50.772;7.730;2023-10-13T10:47:12;25.80;62.70
67093;SHT31;54011;50.772;7.730;2023-10-13T10:49:46;26.33;61.04
67093;SHT31;54011;50.772;7.730;2023-10-13T10:52:17;25.83;61.20
67093;SHT31;54011;50.772;7.730;2023-10-13T10:54:47;26.57;60.18
67093;SHT31;54011;50.772;7.730;2023-10-13T10:57:18;27.30;58.67
67093;SHT31;54011;50.772;7.730;2023-10-13T10:59:47;28.01;58.35
67093;SHT31;54011;50.772;7.730;2023-10-13T11:02:34;27.63;58.01
67093;SHT31;54011;50.772;7.730;2023-10-13T11:05:01;26.87;59.07
67093;SHT31;54011;50.772;7.730;2023-10-13T11:07:28;27.40;59.11
67093;SHT31;54011;50.772;7.730;2023-10-13T11:09:55;26.96;59.22
67093;SHT31;54011;50.772;7.730;2023-10-13T11:12:33;26.95;59.35
67093;SHT31;54011;50.772;7.730;2023-10-13T11:15:07;27.15;59.12
67093;SHT31;54011;50.772;7.730;2023-10-13T11:17:40;26.72;59.48
67093;SHT31;54011;50.772;7.730;2023-10-13T11:20:24;27.10;58.71
67093;SHT31;54011;50.772;7.730;2023-10-13T11:23:01;26.64;59.30
67093;SHT31;54011;50.772;7.730;2023-10-13T11:25:36;26.94;58.97
67093;SHT31;54011;50.772;7.730;2023-10-13T11:28:16;27.25;58.39
67093;SHT31;54011;50.772;7.730;2023-10-13T11:30:58;26.65;59.62
67093;SHT31;54011;50.772;7.730;2023-10-13T11:33:26;27.20;58.14
67093;SHT31;54011;50.772;7.730;2023-10-13T11:35:59;27.37;57.92
67093;SHT31;54011;50.772;7.730;2023-10-13T11:38:33;27.12;58.96
67093;SHT31;54011;50.772;7.730;2023-10-13T11:41:10;26.68;59.02
67093;SHT31;54011;50.772;7.730;2023-10-13T11:43:51;27.12;59.32
67093;SHT31;54011;50.772;7.730;2023-10-13T11:46:19;26.79;58.39
67093;SHT31;54011;50.772;7.730;2023-10-13T11:49:01;27.19;58.22
67093;SHT31;54011;50.772;7.730;2023-10-13T11:51:33;26.75;58.61
67093;SHT31;54011;50.772;7.730;2023-10-13T11:54:03;27.12;58.02
67093;SHT31;54011;50.772;7.730;2023-10-13T11:56:31;26.95;57.56
67093;SHT31;54011;50.772;7.730;2023-10-13T11:58:59;27.06;57.08
67093;SHT31;54011;50.772;7.730;2023-10-13T12:01:31;26.87;57.35
67093;SHT31;54011;50.772;7.730;2023-10-13T12:04:17;27.09;57.37
67093;SHT31;54011;50.772;7.730;2023-10-13T12:07:05;27.03;57.38
67093;SHT31;54011;50.772;7.730;2023-10-13T12:09:50;27.19;57.01
67093;SHT31;54011;50.772;7.730;2023-10-13T12:12:23;27.05;56.93
67093;SHT31;54011;50.772;7.730;2023-10-13T12:14:49;26.99;57.25
67093;SHT31;54011;50.772;7.730;2023-10-13T12:17:26;26.55;57.84
67093;SHT31;54011;50.772;7.730;2023-10-13T12:20:05;26.82;58.10
67093;SHT31;54011;50.772;7.730;2023-10-13T12:22:35;26.48;58.32
67093;SHT31;54011;50.772;7.730;2023-10-13T12:25:02;26.47;58.19
67093;SHT31;54011;50.772;7.730;2023-10-13T12:27:45;26.61;58.40
67093;SHT31;54011;50.772;7.730;2023-10-13T12:30:12;26.40;58.30
67093;SHT31;54011;50.772;7.730;2023-10-13T12:32:40;26.47;58.26
67093;SHT31;54011;50.772;7.730;2023-10-13T12:35:11;26.75;57.79
67093;SHT31;54011;50.772;7.730;2023-10-13T12:37:57;26.69;57.76
67093;SHT31;54011;50.772;7.730;2023-10-13T12:40:42;27.16;57.31
67093;SHT31;54011;50.772;7.730;2023-10-13T12:43:26;26.89;57.89
67093;SHT31;54011;50.772;7.730;2023-10-13T12:46:10;26.41;58.08
67093;SHT31;54011;50.772;7.730;2023-10-13T12:48:54;26.37;57.84
67093;SHT31;54011;50.772;7.730;2023-10-13T12:51:41;26.48;58.14
67093;SHT31;54011;50.772;7.730;2023-10-13T12:54:18;26.65;57.71
67093;SHT31;54011;50.772;7.730;2023-10-13T12:56:49;26.67;57.56
67093;SHT31;54011;50.772;7.730;2023-10-13T12:59:22;27.20;56.70
67093;SHT31;54011;50.772;7.730;2023-10-13T13:01:52;26.61;57.13
67093;SHT31;54011;50.772;7.730;2023-10-13T13:04:19;26.78;56.52
67093;SHT31;54011;50.772;7.730;2023-10-13T13:06:52;26.96;55.70
67093;SHT31;54011;50.772;7.730;2023-10-13T13:09:20;27.03;56.07
67093;SHT31;54011;50.772;7.730;2023-10-13T13:11:53;27.42;54.95
67093;SHT31;54011;50.772;7.730;2023-10-13T13:14:26;27.71;55.81
67093;SHT31;54011;50.772;7.730;2023-10-13T13:16:58;27.56;55.50
67093;SHT31;54011;50.772;7.730;2023-10-13T13:19:35;27.42;55.78
67093;SHT31;54011;50.772;7.730;2023-10-13T13:22:05;27.33;56.03
67093;SHT31;54011;50.772;7.730;2023-10-13T13:24:44;27.16;56.32
67093;SHT31;54011;50.772;7.730;2023-10-13T13:27:14;27.23;56.97
67093;SHT31;54011;50.772;7.730;2023-10-13T13:29:41;27.00;56.82
67093;SHT31;54011;50.772;7.730;2023-10-13T13:32:07;27.00;56.55
67093;SHT31;54011;50.772;7.730;2023-10-13T13:34:44;26.84;56.44
67093;SHT31;54011;50.772;7.730;2023-10-13T13:37:10;26.78;56.82
67093;SHT31;54011;50.772;7.730;2023-10-13T13:39:40;26.89;56.57
67093;SHT31;54011;50.772;7.730;2023-10-13T13:42:12;26.95;56.17
67093;SHT31;54011;50.772;7.730;2023-10-13T13:44:47;26.67;56.80
67093;SHT31;54011;50.772;7.730;2023-10-13T13:47:13;26.79;56.15
67093;SHT31;54011;50.772;7.730;2023-10-13T13:49:40;26.81;55.90
67093;SHT31;54011;50.772;7.730;2023-10-13T13:52:07;26.75;55.71
67093;SHT31;54011;50.772;7.730;2023-10-13T13:54:33;26.50;56.25
67093;SHT31;54011;50.772;7.730;2023-10-13T13:56:58;26.77;55.92
67093;SHT31;54011;50.772;7.730;2023-10-13T13:59:25;26.72;56.22
67093;SHT31;54011;50.772;7.730;2023-10-13T14:01:51;26.84;55.54
67093;SHT31;54011;50.772;7.730;2023-10-13T14:04:21;26.75;55.82
67093;SHT31;54011;50.772;7.730;2023-10-13T14:06:50;26.88;55.69
67093;SHT31;54011;50.772;7.730;2023-10-13T14:09:17;26.54;55.96
67093;SHT31;54011;50.772;7.730;2023-10-13T14:12:02;26.74;55.36
67093;SHT31;54011;50.772;7.730;2023-10-13T14:14:47;26.95;55.09
67093;SHT31;54011;50.772;7.730;2023-10-13T14:17:21;27.05;55.31
67093;SHT31;54011;50.772;7.730;2023-10-13T14:19:57;27.47;54.46
67093;SHT31;54011;50.772;7.730;2023-10-13T14:22:25;27.20;54.73
67093;SHT31;54011;50.772;7.730;2023-10-13T14:24:51;27.05;54.82
67093;SHT31;54011;50.772;7.730;2023-10-13T14:27:21;26.82;55.45
67093;SHT31;54011;50.772;7.730;2023-10-13T14:29:52;27.25;55.10
67093;SHT31;54011;50.772;7.730;2023-10-13T14:32:19;27.30;54.17
67093;SHT31;54011;50.772;7.730;2023-10-13T14:34:46;27.19;54.82
67093;SHT31;54011;50.772;7.730;2023-10-13T14:37:23;27.20;54.79
67093;SHT31;54011;50.772;7.730;2023-10-13T14:40:07;27.39;54.57
67093;SHT31;54011;50.772;7.730;2023-10-13T14:42:39;26.81;55.65
67093;SHT31;54011;50.772;7.730;2023-10-13T14:45:07;27.39;55.45
67093;SHT31;54011;50.772;7.730;2023-10-13T14:47:43;26.96;55.66
67093;SHT31;54011;50.772;7.730;2023-10-13T14:50:11;26.85;56.33
67093;SHT31;54011;50.772;7.730;2023-10-13T14:52:47;26.91;56.05
67093;SHT31;54011;50.772;7.730;2023-10-13T14:55:14;26.94;56.36
67093;SHT31;54011;50.772;7.730;2023-10-13T14:57:49;26.60;56.68
67093;SHT31;54011;50.772;7.730;2023-10-13T15:00:16;26.47;56.64
67093;SHT31;54011;50.772;7.730;2023-10-13T15:02:53;26.67;56.13
67093;SHT31;54011;50.772;7.730;2023-10-13T15:05:20;26.84;55.72
67093;SHT31;54011;50.772;7.730;2023-10-13T15:07:47;26.99;55.64
67093;SHT31;54011;50.772;7.730;2023-10-13T15:10:16;27.03;55.29
67093;SHT31;54011;50.772;7.730;2023-10-13T15:13:03;26.87;55.53
67093;SHT31;54011;50.772;7.730;2023-10-13T15:15:31;26.99;55.60
67093;SHT31;54011;50.772;7.730;2023-10-13T15:17:58;26.58;55.61
67093;SHT31;54011;50.772;7.730;2023-10-13T15:20:26;26.36;55.40
67093;SHT31;54011;50.772;7.730;2023-10-13T15:22:53;26.51;55.45
67093;SHT31;54011;50.772;7.730;2023-10-13T15:25:26;26.91;54.60
67093;SHT31;54011;50.772;7.730;2023-10-13T15:28:00;26.84;55.11
67093;SHT31;54011;50.772;7.730;2023-10-13T15:30:28;26.89;55.05
67093;SHT31;54011;50.772;7.730;2023-10-13T15:33:10;26.69;54.77
67093;SHT31;54011;50.772;7.730;2023-10-13T15:35:40;26.88;53.99
67093;SHT31;54011;50.772;7.730;2023-10-13T15:38:11;26.75;54.34
67093;SHT31;54011;50.772;7.730;2023-10-13T15:40:44;26.48;54.73
67093;SHT31;54011;50.772;7.730;2023-10-13T15:43:10;27.10;53.97
67093;SHT31;54011;50.772;7.730;2023-10-13T15:45:40;26.45;54.36
67093;SHT31;54011;50.772;7.730;2023-10-13T15:48:09;26.84;54.04
67093;SHT31;54011;50.772;7.730;2023-10-13T15:50:40;27.16;53.70
67093;SHT31;54011;50.772;7.730;2023-10-13T15:53:07;26.95;53.94
67093;SHT31;54011;50.772;7.730;2023-10-13T15:55:36;26.94;54.11
67093;SHT31;54011;50.772;7.730;2023-10-13T15:58:05;26.77;54.29
67093;SHT31;54011;50.772;7.730;2023-10-13T16:00:37;27.09;53.98
67093;SHT31;54011;50.772;7.730;2023-10-13T16:03:05;26.98;54.09
67093;SHT31;54011;50.772;7.730;2023-10-13T16:05:37;26.91;54.16
67093;SHT31;54011;50.772;7.730;2023-10-13T16:08:03;26.99;53.81
67093;SHT31;54011;50.772;7.730;2023-10-13T16:10:32;26.95;54.03
67093;SHT31;54011;50.772;7.730;2023-10-13T16:12:59;27.08;53.77
67093;SHT31;54011;50.772;7.730;2023-10-13T16:15:25;27.39;53.40
67093;SHT31;54011;50.772;7.730;2023-10-13T16:17:51;27.32;53.51
67093;SHT31;54011;50.772;7.730;2023-10-13T16:20:20;26.64;54.48
67093;SHT31;54011;50.772;7.730;2023-10-13T16:22:47;27.08;53.83